Latest Weather Observations for Blackall

IDQ60801

Issued at 9:02 pm EST Friday 22 May 2015 (issued every 30 minutes, with the page automatically refreshed every 10 minutes)

About weather observations | Map of weather stations | Latest weather observations for QLD | Other Formats
Station Details ID: 036034 Name: BLACKALL AIRPORT Lat: -24.43 Lon: 145.43 Height: 281.3 m
Data from the previous 72 hours. | See also: Recent months at Blackall
Date/Time
EST
Temp
°C
App
Temp
°C
Dew
Point
Rel
Hum
%
Delta-T
°C
Wind Press
QNH
hPa
Press
MSL
hPa
Rain
since 9 am
mm
Dir
 
Spd
km/h
Gust
km/h
Spd
kts
Gust
kts
22/09:00pm 12.9 8.9 4.8 58 3.8 SSE 15 20 8 11 1024.6 1023.9 0.0
22/08:30pm 13.2 9.1 4.6 56 4.0 SSE 15 22 8 12 1024.3 1023.6 0.0
22/08:00pm 14.1 9.7 4.7 53 4.4 SSE 17 26 9 14 1024.1 1023.4 0.0
22/07:30pm 14.7 10.3 4.7 51 4.7 SSE 17 20 9 11 1024.0 1023.3 0.0
22/07:00pm 15.5 11.1 4.5 48 5.2 S 17 24 9 13 1023.7 1023.0 0.0
22/06:30pm 16.1 12.0 4.2 45 5.6 S 15 22 8 12 1023.3 1022.6 0.0
22/06:00pm 16.7 12.8 3.4 41 6.2 S 13 20 7 11 1022.8 1022.1 0.0
22/05:30pm 17.4 12.2 2.2 36 7.0 S 19 28 10 15 1022.3 1021.6 0.0
22/05:00pm 18.2 12.9 1.7 33 7.5 SSE 19 24 10 13 1022.1 1021.4 0.0
22/04:30pm 18.5 12.5 1.1 31 7.9 S 22 30 12 16 1022.0 1021.3 0.0
22/04:00pm 18.7 12.7 1.2 31 7.9 S 22 32 12 17 1021.9 1021.2 0.0
22/03:30pm 19.0 13.5 2.0 32 7.9 SSE 20 32 11 17 1021.9 1021.2 0.0
22/03:00pm 18.3 12.6 2.6 35 7.3 S 22 33 12 18 1021.9 1021.2 0.0
22/02:30pm 18.3 12.6 2.6 35 7.3 SSE 22 32 12 17 1022.1 1021.4 0.0
22/02:00pm 17.8 12.7 2.9 37 6.9 S 19 32 10 17 1022.3 1021.6 0.0
22/01:30pm 17.4 12.2 3.3 39 6.6 S 20 33 11 18 1022.6 1021.9 0.0
22/01:00pm 17.2 12.8 4.5 43 6.1 S 17 26 9 14 1023.2 1022.5 0.0
22/12:30pm 16.8 12.0 4.5 44 5.9 S 19 30 10 16 1023.7 1023.0 0.0
22/12:00pm 16.5 11.7 5.8 49 5.2 S 20 32 11 17 1024.2 1023.5 0.0
22/11:30am 15.4 10.5 5.0 50 5.0 SSE 20 30 11 16 1024.6 1023.9 0.0
22/11:00am 14.9 10.1 5.7 54 4.4 SE 20 28 11 15 1025.1 1024.5 0.0
22/10:30am 14.4 9.9 7.0 61 3.7 SSE 20 28 11 15 1025.4 1024.7 0.0
22/10:00am 13.9 9.9 8.1 68 2.9 SSE 19 26 10 14 1025.4 1024.7 0.0
22/09:30am 12.4 8.2 7.3 71 2.5 SSE 19 26 10 14 1025.5 1024.8 0.0
22/09:00am 11.7 7.5 7.6 76 2.0 SSE 19 28 10 15 1025.0 1024.4 1.4
22/08:30am 10.6 6.7 7.3 80 1.6 SSE 17 22 9 12 1024.7 1024.1 1.4
22/08:00am 10.1 6.6 7.3 83 1.3 S 15 19 8 10 1024.3 1023.6 1.4
22/07:30am 8.8 6.4 6.8 87 0.9 S 9 11 5 6 1024.1 1023.4 1.4
22/07:00am 8.4 6.2 6.4 87 0.9 S 7 11 4 6 1023.5 1022.8 1.4
22/06:30am 8.8 6.3 6.6 86 1.0 S 9 15 5 8 1023.1 1022.4 1.4
22/06:00am 9.0 6.1 6.6 85 1.1 S 11 17 6 9 1022.7 1022.0 1.4
22/05:30am 9.4 6.6 6.8 84 1.2 S 11 17 6 9 1022.4 1021.7 1.4
22/05:00am 9.9 6.7 7.0 82 1.4 S 13 19 7 10 1022.0 1021.3 1.4
22/04:30am 10.1 6.9 7.0 81 1.5 SSW 13 19 7 10 1022.1 1021.4 1.4
22/04:00am 10.7 7.2 7.4 80 1.6 S 15 20 8 11 1022.1 1021.4 1.4
22/03:30am 10.8 7.8 7.5 80 1.6 S 13 17 7 9 1022.0 1021.3 1.4
22/03:00am 10.8 8.2 7.9 82 1.4 SSW 11 17 6 9 1022.1 1021.4 1.4
22/02:30am 11.0 8.8 8.0 82 1.5 SSW 9 13 5 7 1022.2 1021.5 1.4
22/02:00am 11.5 9.4 8.4 81 1.5 S 9 13 5 7 1022.2 1021.5 1.4
22/01:30am 12.1 9.7 8.8 80 1.7 S 11 15 6 8 1022.3 1021.6 1.4
22/01:00am 12.5 10.2 9.1 80 1.7 SSW 11 15 6 8 1022.4 1021.7 1.4
22/12:30am 12.8 10.2 9.4 80 1.8 SSW 13 17 7 9 1022.6 1021.9 1.4
22/12:00am 13.3 11.1 9.5 78 2.0 SSW 11 17 6 9 1022.7 1022.0 1.4
 
Date/Time
EST
Temp
°C
App
Temp
°C
Dew
Point
Rel
Hum
%
Delta-T
°C
Wind Press
QNH
hPa
Press
MSL
hPa
Rain
since 9 am
mm
Dir
 
Spd
km/h
Gust
km/h
Spd
kts
Gust
kts
21/11:30pm 14.0 11.5 9.8 76 2.2 SSW 13 19 7 10 1022.7 1022.0 1.4
21/11:00pm 14.7 11.9 10.1 74 2.4 SSW 15 19 8 10 1022.8 1022.1 1.4
21/10:30pm 15.1 11.7 10.7 75 2.4 SSW 19 30 10 16 1022.7 1022.0 1.4
21/10:00pm 13.9 12.7 11.6 86 1.2 SSW 9 11 5 6 1022.5 1021.8 1.4
21/09:30pm 14.5 13.4 12.0 85 1.4 SSW 9 9 5 5 1022.4 1021.7 1.4
21/09:00pm 14.7 14.1 12.2 85 1.4 SSE 7 11 4 6 1022.2 1021.5 1.4
21/08:30pm 15.4 14.6 12.9 85 1.4 SSW 9 9 5 5 1022.1 1021.4 1.4
21/08:00pm 15.5 15.2 13.3 87 1.2 SSW 7 11 4 6 1021.9 1021.2 1.4
21/07:30pm 15.4 15.6 14.1 92 0.7 S 6 7 3 4 1021.4 1020.7 1.4
21/07:00pm 15.7 16.2 13.9 89 1.0 S 4 6 2 3 1021.2 1020.5 1.4
21/06:30pm 16.2 16.4 13.1 82 1.8 S 4 6 2 3 1020.8 1020.1 1.4
21/06:00pm 17.1 16.8 13.4 79 2.1 SSE 7 9 4 5 1020.6 1019.9 1.4
21/05:30pm 17.6 16.9 13.1 75 2.6 S 9 13 5 7 1020.4 1019.7 1.4
21/05:00pm 18.0 15.8 13.3 74 2.7 S 17 22 9 12 1020.4 1019.7 1.4
21/04:30pm 17.8 16.1 13.7 77 2.4 SW 15 24 8 13 1020.3 1019.6 1.4
21/04:00pm 17.3 16.2 14.2 82 1.8 SSW 13 20 7 11 1019.9 1019.2 1.4
21/03:30pm 17.2 16.1 14.3 83 1.7 SSW 13 20 7 11 1020.0 1019.3 1.4
21/03:00pm 16.8 15.9 14.8 88 1.2 SSW 13 19 7 10 1020.0 1019.3 1.4
21/02:30pm 16.3 15.6 15.3 94 0.6 SSW 13 17 7 9 1020.4 1019.7 1.4
21/02:00pm 16.2 15.3 14.9 92 0.8 SSW 13 17 7 9 1020.6 1019.9 0.8
21/01:30pm 16.8 15.3 14.3 85 1.4 SW 15 20 8 11 1020.6 1019.9 0.4
21/01:00pm 17.5 14.5 13.6 78 2.2 SW 22 32 12 17 1021.0 1020.3 0.0
21/12:30pm 19.8 16.6 11.3 58 4.7 SSW 19 26 10 14 1020.7 1020.0 0.0
21/12:00pm 20.6 18.5 11.2 55 5.2 SSE 13 22 7 12 1020.8 1020.1 0.0
21/11:30am 20.1 18.0 11.3 57 4.9 SE 13 17 7 9 1021.2 1020.5 0.0
21/11:00am 19.3 16.4 11.1 59 4.5 SE 17 22 9 12 1021.4 1020.7 0.0
21/10:30am 19.5 17.1 11.3 59 4.6 S 15 20 8 11 1022.1 1021.4 0.0
21/10:00am 19.0 16.0 10.6 58 4.6 SSE 17 20 9 11 1022.1 1021.4 0.0
21/09:30am 18.7 14.9 9.8 56 4.8 SSE 20 28 11 15 1022.1 1021.4 0.0
21/09:00am 18.4 15.0 9.2 55 4.9 SSE 17 24 9 13 1021.9 1021.2 0.0
21/08:30am 17.9 15.3 9.3 57 4.6 S 13 17 7 9 1021.4 1020.7 0.0
21/08:00am 17.5 14.9 9.4 59 4.3 SSE 13 19 7 10 1021.2 1020.5 0.0
21/07:30am 17.5 14.9 9.4 59 4.3 SSE 13 17 7 9 1021.0 1020.3 0.0
21/07:00am 17.1 14.5 9.5 61 4.0 S 13 17 7 9 1020.9 1020.2 0.0
21/06:30am 17.0 14.8 9.4 61 4.0 S 11 17 6 9 1020.3 1019.6 0.0
21/06:00am 16.8 14.1 9.0 60 4.1 S 13 17 7 9 1019.8 1019.1 0.0
21/05:30am 16.9 14.6 9.1 60 4.1 SSE 11 17 6 9 1019.5 1018.8 0.0
21/05:00am 16.8 14.1 8.8 59 4.2 SSE 13 17 7 9 1019.4 1018.7 0.0
21/04:30am 16.9 14.1 8.6 58 4.3 SE 13 17 7 9 1019.1 1018.4 0.0
21/04:00am 17.1 14.3 8.5 57 4.5 SSE 13 17 7 9 1019.3 1018.6 0.0
21/03:30am 16.9 14.9 8.6 58 4.3 SSE 9 13 5 7 1019.3 1018.6 0.0
21/03:00am 16.8 14.8 8.5 58 4.3 S 9 13 5 7 1019.7 1019.0 0.0
21/02:30am 17.0 14.9 8.2 56 4.5 SSE 9 13 5 7 1019.9 1019.2 0.0
21/02:00am 17.4 14.9 8.0 54 4.8 SSE 11 15 6 8 1019.9 1019.2 0.0
21/01:30am 17.8 14.9 8.1 53 5.0 SSE 13 17 7 9 1020.4 1019.7 0.0
21/01:00am 18.1 15.5 7.8 51 5.3 S 11 15 6 8 1020.6 1019.9 0.0
21/12:30am 18.6 14.8 7.7 49 5.6 SSE 17 24 9 13 1020.5 1019.8 0.0
21/12:00am 19.1 14.8 7.8 48 5.8 S 20 28 11 15 1020.5 1019.8 0.0
 
Date/Time
EST
Temp
°C
App
Temp
°C
Dew
Point
Rel
Hum
%
Delta-T
°C
Wind Press
QNH
hPa
Press
MSL
hPa
Rain
since 9 am
mm
Dir
 
Spd
km/h
Gust
km/h
Spd
kts
Gust
kts
20/11:30pm 19.3 15.0 7.7 47 6.0 S 20 32 11 17 1020.6 1019.9 0.0
20/11:00pm 19.6 15.3 8.0 47 6.0 S 20 28 11 15 1020.6 1019.9 0.0
20/10:30pm 20.0 15.7 7.7 45 6.4 S 20 28 11 15 1019.7 1019.0 0.0
20/10:00pm 20.3 15.5 7.3 43 6.7 S 22 32 12 17 1019.5 1018.8 0.0
20/09:30pm 20.7 16.3 7.3 42 7.0 S 20 30 11 16 1019.6 1018.9 0.0
20/09:00pm 21.3 15.8 7.5 41 7.2 SSW 26 35 14 19 1019.3 1018.6 0.0
20/08:30pm 21.9 17.6 9.4 45 6.8 SSW 22 44 12 24 1018.9 1018.2 0.0
20/08:25pm 21.7 19.5 10.8 50 6.1 SSW 13 44 7 24 1018.8 1018.1 0.0
20/08:00pm 20.9 20.3 12.3 58 4.9 SSW 7 7 4 4 1018.1 1017.3 0.0
20/07:30pm 22.0 21.4 12.3 54 5.6 SW 7 9 4 5 1017.7 1017.0 0.0
20/07:00pm 23.2 22.7 12.2 50 6.3 SW 6 7 3 4 1017.4 1016.7 0.0
20/06:30pm 24.3 23.5 11.6 45 7.3 SW 7 7 4 4 1017.2 1016.5 0.0
20/06:00pm 25.7 24.7 10.3 38 8.7 SW 6 7 3 4 1017.1 1016.4 0.0
20/05:30pm 27.4 26.0 9.7 33 10.0 WSW 7 9 4 5 1016.7 1016.0 0.0
20/05:00pm 28.8 27.1 10.0 31 10.7 WSW 9 11 5 6 1016.5 1015.8 0.0
20/04:30pm 29.4 27.9 10.5 31 10.9 WSW 9 15 5 8 1016.4 1015.7 0.0
20/04:00pm 29.3 28.3 10.9 32 10.6 WSW 7 17 4 9 1016.4 1015.7 0.0
20/03:30pm 28.9 27.4 10.6 32 10.5 WSW 9 17 5 9 1016.4 1015.7 0.0
20/03:00pm 29.0 27.7 11.1 33 10.4 WSW 9 15 5 8 1016.3 1015.6 0.0
20/02:30pm 29.6 28.0 10.2 30 11.1 WSW 9 17 5 9 1016.6 1015.9 0.0
20/02:00pm 29.2 27.6 11.7 34 10.2 WSW 11 20 6 11 1016.8 1016.1 0.0
20/01:30pm 28.8 27.7 11.8 35 10.0 NNW 9 15 5 8 1017.1 1016.4 0.0
20/01:00pm 28.8 27.3 11.8 35 9.9 W 11 19 6 10 1017.6 1016.9 0.0
20/12:30pm 29.1 28.4 13.3 37 9.5 NNW 9 13 5 7 1018.1 1017.3 0.0
20/12:00pm 27.6 26.4 12.8 40 8.7 NNW 11 17 6 9 1018.7 1018.0 0.0
20/11:30am 27.6 26.4 13.9 43 8.3 NNW 13 20 7 11 1018.9 1018.2 0.0
20/11:00am 26.6 24.6 14.0 46 7.6 N 17 24 9 13 1019.3 1018.6 0.0
20/10:30am 25.7 24.3 14.5 50 6.8 N 15 24 8 13 1019.7 1019.0 0.0
20/10:00am 24.4 23.1 14.8 55 5.8 NNE 15 20 8 11 1019.9 1019.2 0.0
20/09:30am 22.6 21.1 14.2 59 5.0 NNE 15 20 8 11 1020.0 1019.3 0.0
20/09:00am 21.0 18.9 13.7 63 4.3 NNE 17 22 9 12 1019.6 1018.9 0.0
20/08:30am 20.1 18.8 13.6 66 3.8 NE 13 17 7 9 1019.6 1018.9 0.0
20/08:00am 18.7 19.2 14.0 74 2.7 ENE 4 9 2 5 1019.6 1018.9 0.0
20/07:30am 15.3 16.0 12.2 82 1.7 CALM 0 0 0 0 1019.3 1018.6 0.0
20/07:00am 14.0 14.6 11.9 87 1.1 CALM 0 0 0 0 1018.8 1018.1 0.0
20/06:30am 13.9 14.5 11.9 88 1.1 CALM 0 0 0 0 1018.7 1018.0 0.0
20/06:00am 14.1 14.7 12.0 87 1.1 CALM 0 0 0 0 1018.3 1017.5 0.0
20/05:30am 14.6 14.9 12.1 85 1.4 ESE 2 6 1 3 1018.1 1017.3 0.0
20/05:00am 15.2 15.9 12.1 82 1.7 CALM 0 0 0 0 1017.7 1017.0 0.0
20/04:30am 16.2 15.2 12.2 77 2.2 ENE 9 11 5 6 1017.4 1016.7 0.0
20/04:00am 16.8 15.9 12.5 76 2.4 ENE 9 11 5 6 1017.4 1016.7 0.0
20/03:30am 16.5 15.2 12.5 77 2.2 ENE 11 11 6 6 1017.4 1016.7 0.0
20/03:00am 16.0 15.7 12.7 81 1.8 ENE 6 7 3 4 1017.5 1016.8 0.0
20/02:30am 16.0 15.8 12.9 82 1.7 E 6 9 3 5 1017.5 1016.8 0.0
20/02:00am 16.2 15.9 12.7 80 2.0 ENE 6 7 3 4 1017.6 1016.9 0.0
20/01:30am 16.7 16.2 12.8 78 2.2 ENE 7 9 4 5 1017.9 1017.1 0.0
20/01:00am 17.1 16.4 13.2 78 2.2 ENE 9 11 5 6 1018.0 1017.2 0.0
20/12:30am 16.9 16.3 13.4 80 2.0 ENE 9 11 5 6 1018.1 1017.3 0.0
20/12:00am 17.2 17.1 13.9 81 1.9 ENE 7 9 4 5 1018.3 1017.5 0.0
 
Date/Time
EST
Temp
°C
App
Temp
°C
Dew
Point
Rel
Hum
%
Delta-T
°C
Wind Press
QNH
hPa
Press
MSL
hPa
Rain
since 9 am
mm
Dir
 
Spd
km/h
Gust
km/h
Spd
kts
Gust
kts
19/11:30pm 17.2 17.2 14.3 83 1.7 ENE 7 11 4 6 1018.5 1017.7 0.0
19/11:00pm 17.3 17.9 14.2 82 1.8 SSE 4 6 2 3 1018.6 1017.9 0.0
19/10:30pm 17.7 18.3 14.2 80 2.0 SSE 4 6 2 3 1018.6 1017.9 0.0
19/10:00pm 18.2 18.4 14.1 77 2.4 SE 6 6 3 3 1018.6 1017.9 0.0
19/09:30pm 18.8 19.9 14.5 76 2.5 S 2 7 1 4 1018.7 1018.0 0.0

Other Formats:

Comma delimited format used in spreadsheet applications
http://www.bom.gov.au/fwo/IDQ60801/IDQ60801.95351.axf

JavaScript Object Notation format (JSON) in row-major order
http://www.bom.gov.au/fwo/IDQ60801/IDQ60801.95351.json